Time;durP1;ratioP1;P1;durP2;ratioP2;P2;SDS_P1;SDS_P2;PMS_P1;PMS_P2;Temp;Humidity;BMP_temperature;BMP_pressure;BME280_temperature;BME280_humidity;BME280_pressure;Samples;Min_cycle;Max_cycle;Signal;HPM_P1;HPM_P2
2022/10/03 20:26:56;;;;;;;37.92;17.08;;;11.50;99.90;;;;;;5148615;27;20476;-64
2022/10/03 20:29:37;;;;;;;28.88;15.82;;;11.30;99.90;;;;;;5149097;27;20133;-62
2022/10/03 20:32:04;;;;;;;31.33;15.68;;;11.30;99.90;;;;;;5130452;27;20060;-62
2022/10/03 20:34:34;;;;;;;30.02;15.70;;;11.40;99.90;;;;;;5112884;27;20058;-62
2022/10/03 20:37:03;;;;;;;29.27;16.38;;;11.40;99.90;;;;;;5149088;27;20047;-62
2022/10/03 20:39:34;;;;;;;29.15;15.07;;;11.30;99.90;;;;;;5148805;27;20051;-62
2022/10/03 20:42:10;;;;;;;22.52;13.63;;;11.30;99.90;;;;;;5164623;27;20072;-62
2022/10/03 20:44:53;;;;;;;22.48;12.00;;;11.30;99.90;;;;;;5147593;27;20047;-62
2022/10/03 20:47:32;;;;;;;39.83;16.10;;;11.40;99.90;;;;;;5130141;27;20053;-62
2022/10/03 20:50:11;;;;;;;28.02;15.02;;;11.40;99.90;;;;;;5129816;27;20053;-62
2022/10/03 20:52:37;;;;;;;23.73;14.55;;;11.40;99.90;;;;;;5130038;27;20381;-62
2022/10/03 20:55:07;;;;;;;23.15;13.85;;;11.40;99.90;;;;;;5130098;27;20039;-62
2022/10/03 20:57:55;;;;;;;25.52;14.38;;;11.40;99.90;;;;;;5129742;27;20047;-62
2022/10/03 21:00:23;;;;;;;28.05;13.70;;;11.40;99.90;;;;;;5148599;27;20049;-62
2022/10/03 21:03:23;;;;;;;27.25;13.57;;;11.40;99.90;;;;;;5148255;27;20075;-62
2022/10/03 21:05:52;;;;;;;23.45;13.85;;;11.40;99.90;;;;;;5129606;27;20042;-62
2022/10/03 21:08:26;;;;;;;21.45;13.07;;;11.50;99.90;;;;;;5129472;27;20031;-62
2022/10/03 21:10:57;;;;;;;23.48;12.48;;;11.50;99.90;;;;;;5148089;27;20045;-62
2022/10/03 21:13:31;;;;;;;27.38;13.50;;;11.50;99.90;;;;;;5110326;27;20393;-62
2022/10/03 21:15:58;;;;;;;23.88;13.63;;;11.60;99.90;;;;;;5129322;27;20486;-62
2022/10/03 21:18:27;;;;;;;29.08;13.27;;;11.60;99.90;;;;;;5129368;27;20078;-62
2022/10/03 21:21:04;;;;;;;22.33;13.35;;;11.60;99.90;;;;;;5129135;27;20038;-62
2022/10/03 21:23:35;;;;;;;26.38;11.30;;;11.70;99.90;;;;;;5147659;27;20039;-62
2022/10/03 21:26:02;;;;;;;25.40;11.82;;;11.70;99.90;;;;;;5111833;27;20099;-62
2022/10/03 21:28:33;;;;;;;22.23;13.68;;;11.70;99.90;;;;;;5129285;27;20474;-62
2022/10/03 21:31:20;;;;;;;23.65;11.77;;;11.70;99.90;;;;;;5129163;27;20038;-62
2022/10/03 21:34:26;;;;;;;22.70;11.20;;;11.80;99.90;;;;;;5147776;27;20038;-62
2022/10/03 21:37:36;;;;;;;23.92;10.88;;;11.80;99.90;;;;;;5019167;28;20042;-62
2022/10/03 21:40:04;;;;;;;22.15;12.10;;;11.80;99.90;;;;;;5049372;28;20037;-62
2022/10/03 21:42:52;;;;;;;17.67;11.10;;;11.80;99.90;;;;;;5011778;28;20493;-62
2022/10/03 21:45:35;;;;;;;20.40;10.85;;;11.80;99.90;;;;;;5101559;27;20046;-62
2022/10/03 21:48:11;;;;;;;22.05;11.55;;;11.80;99.90;;;;;;5123902;27;20045;-61
2022/10/03 21:51:19;;;;;;;19.67;9.38;;;11.80;99.90;;;;;;5117337;27;20031;-62
2022/10/03 21:54:01;;;;;;;20.27;11.43;;;11.80;99.90;;;;;;5104552;27;20050;-62
2022/10/03 21:56:29;;;;;;;24.83;11.77;;;11.80;99.90;;;;;;5135058;27;20482;-62
2022/10/03 21:59:14;;;;;;;16.38;10.68;;;11.80;99.90;;;;;;5116846;27;20093;-63
2022/10/03 22:02:02;;;;;;;22.55;14.40;;;11.80;99.90;;;;;;5134819;27;20139;-62
2022/10/03 22:04:42;;;;;;;23.75;12.13;;;11.80;99.90;;;;;;5116365;27;20046;-62
2022/10/03 22:07:12;;;;;;;;;;;11.80;99.90;;;;;;5135629;27;20035;-62
2022/10/03 22:09:54;;;;;;;24.03;11.37;;;11.80;99.90;;;;;;5116400;27;19919;-63
2022/10/03 22:12:21;;;;;;;23.45;12.18;;;11.80;99.90;;;;;;5132380;27;20135;-62
2022/10/03 22:15:07;;;;;;;25.15;12.13;;;11.80;99.90;;;;;;5134751;27;20168;-62
2022/10/03 22:17:55;;;;;;;26.23;12.63;;;11.80;99.90;;;;;;5116232;27;20035;-63
2022/10/03 22:20:28;;;;;;;26.83;12.60;;;11.90;99.90;;;;;;5134612;27;20039;-62
2022/10/03 22:22:58;;;;;;;23.17;11.60;;;11.90;99.90;;;;;;5099280;27;20126;-63
2022/10/03 22:26:02;;;;;;;29.13;13.70;;;11.90;99.90;;;;;;5115901;27;20055;-62
2022/10/03 22:28:37;;;;;;;24.00;12.90;;;11.90;99.90;;;;;;5134689;27;20039;-62
2022/10/03 22:31:09;;;;;;;26.63;13.15;;;12.00;99.90;;;;;;5116018;27;20043;-63
2022/10/03 22:33:43;;;;;;;28.95;12.45;;;12.00;99.90;;;;;;5134338;27;20039;-63
2022/10/03 22:36:11;;;;;;;27.70;13.07;;;12.10;99.90;;;;;;5134766;27;20039;-63
2022/10/03 22:38:38;;;;;;;26.27;12.55;;;12.10;99.90;;;;;;5134329;27;20086;-63
2022/10/03 22:41:08;;;;;;;26.20;13.60;;;12.10;99.90;;;;;;5116210;27;20466;-63
2022/10/03 22:43:36;;;;;;;28.50;13.88;;;12.20;99.90;;;;;;5131593;27;20498;-62
2022/10/03 22:46:03;;;;;;;23.60;12.93;;;12.20;99.90;;;;;;5134157;27;20130;-63
2022/10/03 22:48:52;;;;;;;29.63;11.57;;;12.20;99.90;;;;;;5098411;27;20035;-63
2022/10/03 22:51:20;;;;;;;29.05;12.30;;;12.20;99.90;;;;;;5117508;27;20031;-63
2022/10/03 22:54:03;;;;;;;24.15;13.73;;;12.20;99.90;;;;;;5149507;27;20486;-63
2022/10/03 22:56:54;;;;;;;27.98;13.75;;;12.20;99.90;;;;;;5137177;27;20446;-63
2022/10/03 22:59:27;;;;;;;24.40;14.30;;;12.20;99.90;;;;;;5125458;27;20043;-63
2022/10/03 23:01:59;;;;;;;31.02;14.57;;;12.20;99.90;;;;;;5134548;27;20043;-63
2022/10/03 23:04:36;;;;;;;31.83;14.00;;;12.30;99.90;;;;;;5134458;27;20059;-63
2022/10/03 23:07:16;;;;;;;27.15;11.02;;;12.30;99.90;;;;;;5116984;27;20042;-63
2022/10/03 23:10:02;;;;;;;19.75;8.93;;;12.30;99.90;;;;;;5139281;27;20036;-63
2022/10/03 23:12:34;;;;;;;20.15;9.00;;;12.30;99.90;;;;;;5118267;27;20063;-63
2022/10/03 23:15:03;;;;;;;24.15;9.82;;;12.30;99.90;;;;;;5119002;27;20043;-63
2022/10/03 23:17:47;;;;;;;16.70;8.02;;;12.30;99.90;;;;;;5118012;27;20501;-63
2022/10/03 23:20:39;;;;;;;20.27;7.75;;;12.30;99.90;;;;;;5118279;27;20035;-63
2022/10/03 23:23:23;;;;;;;17.17;8.48;;;12.30;99.90;;;;;;5081007;27;20039;-63
2022/10/03 23:26:32;;;;;;;22.83;9.00;;;12.20;99.90;;;;;;5118115;27;20062;-63
2022/10/03 23:29:09;;;;;;;18.15;8.57;;;12.30;99.90;;;;;;5138048;27;20135;-63
2022/10/03 23:31:59;;;;;;;20.20;8.75;;;12.20;99.90;;;;;;5118307;27;20063;-63
2022/10/03 23:34:31;;;;;;;;;;;12.30;99.90;;;;;;5118376;27;20046;-63
2022/10/03 23:37:00;;;;;;;17.25;7.95;;;12.20;99.90;;;;;;5118175;27;19965;-63
2022/10/03 23:39:33;;;;;;;19.92;8.80;;;12.20;99.90;;;;;;5138070;27;20410;-63
2022/10/03 23:42:03;;;;;;;19.08;9.32;;;12.20;99.90;;;;;;5138040;27;20041;-63
2022/10/03 23:44:39;;;;;;;24.98;9.00;;;12.20;99.90;;;;;;5117513;27;20039;-63
2022/10/03 23:47:08;;;;;;;21.52;9.55;;;12.20;99.90;;;;;;5117527;27;20035;-63
2022/10/03 23:49:37;;;;;;;15.57;8.35;;;12.20;99.90;;;;;;5136270;27;20046;-63
2022/10/03 23:52:05;;;;;;;19.35;8.20;;;12.20;99.90;;;;;;5119226;27;20047;-63
2022/10/03 23:54:31;;;;;;;19.85;9.75;;;12.20;99.90;;;;;;5101710;27;20521;-63
2022/10/03 23:57:05;;;;;;;21.00;8.55;;;12.20;99.90;;;;;;5102567;27;20141;-64
2022/10/03 23:59:35;;;;;;;15.38;8.73;;;12.20;99.90;;;;;;5136895;27;20043;-63
